Time;durP1;ratioP1;P1;durP2;ratioP2;P2;SDS_P1;SDS_P2;PMS_P1;PMS_P2;Temp;Humidity;BMP_temperature;BMP_pressure;BME280_temperature;BME280_humidity;BME280_pressure;Samples;Min_cycle;Max_cycle;Signal;HPM_P1;HPM_P2
2023/04/22 00:01:34;;;;;;;;;;;;;;;24.00;47.67;96647.67;611023;231;64919;-61
2023/04/22 00:04:02;;;;;;;;;;;;;;;24.00;47.76;96642.30;611151;230;66765;-61
2023/04/22 00:06:30;;;;;;;;;;;;;;;24.00;48.45;96644.20;611518;230;64974;-61
2023/04/22 00:08:58;;;;;;;;;;;;;;;23.99;49.12;96640.72;611003;232;65163;-61
2023/04/22 00:11:25;;;;;;;;;;;;;;;23.97;45.95;96645.59;605265;231;65322;-61
2023/04/22 00:13:53;;;;;;;;;;;;;;;23.98;48.10;96649.88;612522;231;65027;-61
2023/04/22 00:16:21;;;;;;;;;;;;;;;23.98;47.93;96649.88;611116;231;67210;-61
2023/04/22 00:18:48;;;;;;;;;;;;;;;23.97;49.52;96653.64;611033;232;67178;-61
2023/04/22 00:21:15;;;;;;;;;;;;;;;23.97;47.52;96648.27;610958;231;65117;-61
2023/04/22 00:23:44;;;;;;;;;;;;;;;23.96;49.45;96648.59;612050;231;67248;-61
2023/04/22 00:26:11;;;;;;;;;;;;;;;23.95;49.84;96645.09;611942;231;67064;-61
2023/04/22 00:28:39;;;;;;;;;;;;;;;23.93;48.68;96648.09;611043;230;63689;-61
2023/04/22 00:31:07;;;;;;;;;;;;;;;23.95;46.41;96650.45;610986;232;66916;-61
2023/04/22 00:33:35;;;;;;;;;;;;;;;23.93;47.75;96653.45;611349;231;66884;-61
2023/04/22 00:36:02;;;;;;;;;;;;;;;23.93;47.12;96658.03;611558;231;66210;-61
2023/04/22 00:38:30;;;;;;;;;;;;;;;23.92;48.62;96656.42;611250;232;67339;-61
2023/04/22 00:40:57;;;;;;;;;;;;;;;23.92;47.32;96651.05;612044;231;67750;-61
2023/04/22 00:43:25;;;;;;;;;;;;;;;23.91;48.57;96644.89;611520;232;62736;-61
2023/04/22 00:45:53;;;;;;;;;;;;;;;23.91;48.74;96660.20;610882;232;66972;-61
2023/04/22 00:48:20;;;;;;;;;;;;;;;23.90;47.47;96647.89;611336;231;64501;-61
2023/04/22 00:50:48;;;;;;;;;;;;;;;23.90;48.99;96642.53;612097;231;65169;-61
2023/04/22 00:53:14;;;;;;;;;;;;;;;;;;611031;231;67114;-61
2023/04/22 00:55:42;;;;;;;;;;;;;;;23.89;47.16;96619.45;611153;231;67054;-61
2023/04/22 00:58:10;;;;;;;;;;;;;;;23.88;48.49;96613.30;611207;232;64970;-61
2023/04/22 01:00:37;;;;;;;;;;;;;;;23.87;48.44;96600.98;611095;232;67256;-61
2023/04/22 01:03:06;;;;;;;;;;;;;;;23.87;49.31;96589.43;611445;231;67012;-61
2023/04/22 01:05:34;;;;;;;;;;;;;;;23.87;47.73;96589.43;611344;230;65034;-61
2023/04/22 01:08:02;;;;;;;;;;;;;;;23.87;49.75;96595.61;611033;231;67020;-61
2023/04/22 01:10:29;;;;;;;;;;;;;;;23.86;49.34;96603.95;612313;230;64848;-61
2023/04/22 01:12:57;;;;;;;;;;;;;;;23.86;48.23;96617.37;611308;231;63092;-61
2023/04/22 01:15:24;;;;;;;;;;;;;;;23.85;47.60;96619.27;610870;231;72932;-61
2023/04/22 01:17:53;;;;;;;;;;;;;;;23.85;50.04;96619.27;611309;231;67537;-61
2023/04/22 01:20:22;;;;;;;;;;;;;;;23.85;49.16;96618.47;611182;232;65261;-61
2023/04/22 01:22:52;;;;;;;;;;;;;;;23.84;48.53;96624.91;611389;232;67310;-61
2023/04/22 01:25:20;;;;;;;;;;;;;;;23.83;49.09;96626.81;610983;231;67420;-61
2023/04/22 01:27:47;;;;;;;;;;;;;;;23.83;48.89;96620.66;611022;232;65058;-61
2023/04/22 01:30:15;;;;;;;;;;;;;;;23.83;48.93;96621.44;611095;231;67019;-61
2023/04/22 01:32:42;;;;;;;;;;;;;;;23.82;48.52;96619.08;610916;231;67052;-61
2023/04/22 01:35:10;;;;;;;;;;;;;;;23.81;49.48;96623.63;611014;231;64928;-61
2023/04/22 01:37:38;;;;;;;;;;;;;;;23.81;46.79;96625.52;611022;231;67255;-61
2023/04/22 01:40:06;;;;;;;;;;;;;;;23.81;47.74;96622.83;611292;232;67865;-61
2023/04/22 01:42:34;;;;;;;;;;;;;;;23.81;50.30;96622.83;611579;231;63772;-61
2023/04/22 01:45:02;;;;;;;;;;;;;;;23.79;47.85;96622.33;611030;232;64453;-61
2023/04/22 01:47:29;;;;;;;;;;;;;;;23.79;49.19;96625.02;611070;231;66774;-61
2023/04/22 01:49:57;;;;;;;;;;;;;;;23.79;50.34;96625.02;611170;231;65637;-61
2023/04/22 01:52:26;;;;;;;;;;;;;;;23.78;48.59;96629.59;611290;231;68215;-61
2023/04/22 01:54:54;;;;;;;;;;;;;;;23.79;50.48;96630.38;610973;231;67403;-61
2023/04/22 01:57:22;;;;;;;;;;;;;;;23.77;48.01;96619.17;614172;230;64900;-61
2023/04/22 01:59:49;;;;;;;;;;;;;;;23.77;48.18;96624.53;611050;231;67459;-61
2023/04/22 02:02:17;;;;;;;;;;;;;;;23.76;48.54;96628.30;611241;230;64844;-62
2023/04/22 02:04:44;;;;;;;;;;;;;;;23.75;48.31;96618.67;610983;232;63002;-62
2023/04/22 02:07:12;;;;;;;;;;;;;;;23.74;49.12;96612.52;611419;231;67229;-62
2023/04/22 02:09:39;;;;;;;;;;;;;;;23.75;49.21;96610.61;611363;231;66836;-62
2023/04/22 02:12:07;;;;;;;;;;;;;;;23.74;47.47;96614.41;611968;231;62678;-62
2023/04/22 02:14:34;;;;;;;;;;;;;;;23.74;48.16;96617.09;611530;231;65004;-62
2023/04/22 02:17:04;;;;;;;;;;;;;;;23.73;48.70;96612.80;611818;231;48974;-62
2023/04/22 02:19:31;;;;;;;;;;;;;;;23.73;49.47;96610.11;610976;232;65075;-62
2023/04/22 02:21:59;;;;;;;;;;;;;;;23.73;50.26;96618.16;610967;231;67287;-62
2023/04/22 02:24:27;;;;;;;;;;;;;;;23.72;50.44;96616.58;611777;230;67119;-62
2023/04/22 02:26:54;;;;;;;;;;;;;;;23.72;49.75;96619.27;612672;231;64928;-62
2023/04/22 02:29:23;;;;;;;;;;;;;;;23.70;49.81;96616.84;613167;231;67076;-62
2023/04/22 02:31:50;;;;;;;;;;;;;;;23.70;48.78;96622.20;610928;231;66510;-62
2023/04/22 02:34:18;;;;;;;;;;;;;;;23.69;50.17;96613.36;611530;230;63459;-62
2023/04/22 02:36:46;;;;;;;;;;;;;;;23.69;49.88;96615.26;612401;231;67412;-62
2023/04/22 02:39:14;;;;;;;;;;;;;;;23.68;48.93;96622.52;607303;230;66625;-62
2023/04/22 02:41:42;;;;;;;;;;;;;;;23.68;48.93;96619.84;613722;230;64918;-62
2023/04/22 02:44:09;;;;;;;;;;;;;;;23.68;51.08;96622.52;611000;232;64698;-62
2023/04/22 02:46:37;;;;;;;;;;;;;;;23.67;49.33;96628.16;610968;231;64585;-62
2023/04/22 02:49:04;;;;;;;;;;;;;;;23.67;48.69;96625.48;611661;231;66020;-62
2023/04/22 02:51:32;;;;;;;;;;;;;;;23.66;49.37;96630.06;611970;231;64764;-62
2023/04/22 02:54:00;;;;;;;;;;;;;;;23.65;49.37;96625.80;612121;231;66810;-62
2023/04/22 02:56:27;;;;;;;;;;;;;;;23.65;48.41;96630.34;611457;231;62668;-62
2023/04/22 02:58:55;;;;;;;;;;;;;;;23.65;51.21;96624.98;612490;231;64624;-62
2023/04/22 03:01:23;;;;;;;;;;;;;;;23.63;50.75;96625.30;610928;231;66968;-61
2023/04/22 03:03:51;;;;;;;;;;;;;;;23.63;49.12;96636.02;610991;231;62615;-62
2023/04/22 03:06:20;;;;;;;;;;;;;;;23.63;50.26;96630.66;612668;231;49122;-62
2023/04/22 03:08:48;;;;;;;;;;;;;;;23.62;47.56;96634.41;613765;230;67482;-62
2023/04/22 03:11:15;;;;;;;;;;;;;;;23.61;49.50;96640.88;611078;231;62674;-62
2023/04/22 03:13:43;;;;;;;;;;;;;;;23.60;48.91;96636.62;611390;230;65719;-62
2023/04/22 03:16:11;;;;;;;;;;;;;;;23.59;48.39;96648.42;611441;232;66913;-62
2023/04/22 03:18:39;;;;;;;;;;;;;;;23.61;48.54;96645.45;611231;232;65139;-62
2023/04/22 03:21:07;;;;;;;;;;;;;;;23.59;49.98;96645.73;611080;231;64522;-61
2023/04/22 03:23:35;;;;;;;;;;;;;;;23.59;50.12;96645.73;611254;231;67515;-62
2023/04/22 03:26:03;;;;;;;;;;;;;;;23.58;48.91;96644.16;611714;231;65615;-62
2023/04/22 03:28:30;;;;;;;;;;;;;;;23.58;49.25;96646.84;611483;231;65172;-62
2023/04/22 03:30:58;;;;;;;;;;;;;;;23.57;49.62;96645.27;611543;230;67308;-62
2023/04/22 03:33:26;;;;;;;;;;;;;;;23.57;48.57;96650.62;612316;230;65715;-61
2023/04/22 03:35:55;;;;;;;;;;;;;;;23.56;47.31;96654.38;612884;231;44314;-62
2023/04/22 03:38:23;;;;;;;;;;;;;;;23.55;49.54;96650.13;611213;231;67833;-62
2023/04/22 03:40:51;;;;;;;;;;;;;;;23.55;49.00;96658.17;611566;231;64980;-62
2023/04/22 03:43:22;;;;;;;;;;;;;;;23.55;49.52;96665.42;609696;231;48451;-62
2023/04/22 03:45:54;;;;;;;;;;;;;;;23.54;47.73;96669.97;612744;230;46578;-62
2023/04/22 03:48:24;;;;;;;;;;;;;;;23.55;48.79;96665.42;611145;230;43829;-62
2023/04/22 03:50:52;;;;;;;;;;;;;;;23.54;47.82;96663.81;611060;230;67605;-62
2023/04/22 03:53:19;;;;;;;;;;;;;;;23.53;50.53;96671.07;611443;231;67405;-62
2023/04/22 03:55:47;;;;;;;;;;;;;;;23.51;48.85;96670.56;612471;231;64861;-62
2023/04/22 03:58:15;;;;;;;;;;;;;;;23.52;50.92;96671.35;611282;232;64591;-62
2023/04/22 04:00:43;;;;;;;;;;;;;;;23.51;49.15;96675.93;611020;231;67590;-62
2023/04/22 04:03:12;;;;;;;;;;;;;;;23.51;48.85;96673.25;611063;231;43532;-62
2023/04/22 04:05:40;;;;;;;;;;;;;;;23.51;49.32;96673.25;611910;231;67296;-62
2023/04/22 04:08:08;;;;;;;;;;;;;;;23.51;49.18;96683.97;611270;232;65636;-62
2023/04/22 04:10:36;;;;;;;;;;;;;;;23.50;48.10;96687.76;611433;230;64833;-61
2023/04/22 04:13:04;;;;;;;;;;;;;;;23.50;50.30;96679.71;611071;232;67216;-60
2023/04/22 04:15:35;;;;;;;;;;;;;;;23.49;50.23;96696.91;610909;231;44390;-61
2023/04/22 04:18:04;;;;;;;;;;;;;;;23.49;50.66;96702.27;611257;231;65024;-61
2023/04/22 04:20:32;;;;;;;;;;;;;;;23.47;50.41;96697.19;611107;232;67948;-61
2023/04/22 04:23:03;;;;;;;;;;;;;;;23.47;48.61;96704.44;612015;229;46531;-61
2023/04/22 04:25:37;;;;;;;;;;;;;;;23.46;48.00;96706.34;611664;232;62514;-61
2023/04/22 04:28:00;;;;;;;;;;;;;;;23.47;47.64;96709.80;611230;231;67607;-61
2023/04/22 04:30:28;;;;;;;;;;;;;;;23.47;51.15;96712.48;611369;230;67121;-61
2023/04/22 04:32:56;;;;;;;;;;;;;;;23.45;48.96;96710.09;611092;231;65011;-61
2023/04/22 04:35:27;;;;;;;;;;;;;;;23.45;49.96;96717.34;613137;231;43732;-62
2023/04/22 04:37:55;;;;;;;;;;;;;;;23.44;49.22;96711.19;611213;231;65752;-61
2023/04/22 04:40:23;;;;;;;;;;;;;;;23.44;49.21;96710.40;611608;232;65054;-61
2023/04/22 04:42:54;;;;;;;;;;;;;;;23.44;47.86;96710.40;609892;232;46908;-61
2023/04/22 04:45:24;;;;;;;;;;;;;;;23.42;49.16;96713.36;612034;231;45776;-61
2023/04/22 04:47:53;;;;;;;;;;;;;;;23.42;49.45;96712.56;611568;231;62935;-61
2023/04/22 04:50:22;;;;;;;;;;;;;;;23.43;49.68;96722.20;611399;232;45696;-62
2023/04/22 04:52:50;;;;;;;;;;;;;;;23.41;49.47;96721.72;611909;231;66450;-61
2023/04/22 04:55:19;;;;;;;;;;;;;;;23.41;50.47;96714.45;611070;231;42370;-61
2023/04/22 04:57:47;;;;;;;;;;;;;;;23.41;50.02;96721.72;611147;230;67389;-62
2023/04/22 05:00:15;;;;;;;;;;;;;;;23.41;50.89;96721.72;611244;230;64283;-61
2023/04/22 05:02:43;;;;;;;;;;;;;;;23.39;48.86;96718.52;610950;231;66003;-61
2023/04/22 05:05:10;;;;;;;;;;;;;;;23.39;50.42;96729.25;612650;230;64698;-62
2023/04/22 05:07:39;;;;;;;;;;;;;;;23.38;49.82;96727.64;611468;231;67236;-62
2023/04/22 05:10:07;;;;;;;;;;;;;;;23.37;49.68;96729.53;610939;232;63541;-62
2023/04/22 05:12:34;;;;;;;;;;;;;;;23.38;51.21;96733.00;611370;231;67255;-61
2023/04/22 05:15:02;;;;;;;;;;;;;;;23.37;50.10;96737.57;612742;231;64612;-61
2023/04/22 05:17:30;;;;;;;;;;;;;;;23.38;49.74;96739.19;613442;231;63018;-61
2023/04/22 05:19:57;;;;;;;;;;;;;;;23.37;50.76;96740.25;612109;231;67684;-61
2023/04/22 05:22:25;;;;;;;;;;;;;;;23.36;47.97;96741.36;610959;231;66949;-62
2023/04/22 05:24:53;;;;;;;;;;;;;;;23.36;49.47;96737.88;611425;230;63003;-62
2023/04/22 05:27:21;;;;;;;;;;;;;;;23.36;49.47;96740.56;611393;231;67280;-62
2023/04/22 05:29:49;;;;;;;;;;;;;;;23.35;49.61;96738.95;611000;231;64545;-62
2023/04/22 05:32:18;;;;;;;;;;;;;;;23.35;50.63;96734.38;611007;231;65088;-62
2023/04/22 05:34:46;;;;;;;;;;;;;;;23.34;49.58;96727.44;610908;231;67413;-62
2023/04/22 05:37:13;;;;;;;;;;;;;;;23.33;49.54;96730.43;611024;231;65046;-62
2023/04/22 05:39:42;;;;;;;;;;;;;;;23.33;50.16;96733.11;612542;231;46557;-62
2023/04/22 05:42:10;;;;;;;;;;;;;;;23.33;50.20;96725.86;611665;232;67952;-62
2023/04/22 05:44:38;;;;;;;;;;;;;;;23.32;49.21;96736.86;611247;232;67970;-62
2023/04/22 05:47:08;;;;;;;;;;;;;;;23.32;50.66;96731.50;611548;231;62388;-61
2023/04/22 05:49:36;;;;;;;;;;;;;;;23.31;49.47;96730.70;612071;231;67185;-62
2023/04/22 05:52:22;;;;;;;;;;;;;;;23.30;49.56;96722.94;611698;232;37652;-61
2023/04/22 05:54:51;;;;;;;;;;;;;;;23.30;50.27;96722.94;610773;231;46334;-61
2023/04/22 05:57:19;;;;;;;;;;;;;;;23.29;49.52;96738.23;612626;230;67188;-61
2023/04/22 05:59:47;;;;;;;;;;;;;;;23.30;51.21;96725.63;611606;230;66763;-61
2023/04/22 06:02:15;;;;;;;;;;;;;;;23.29;47.81;96730.20;612276;231;65205;-61
2023/04/22 06:04:42;;;;;;;;;;;;;;;23.30;50.55;96722.94;606165;232;64880;-61
2023/04/22 06:07:10;;;;;;;;;;;;;;;23.30;49.18;96726.45;610089;231;65744;-61
2023/04/22 06:09:39;;;;;;;;;;;;;;;23.30;50.84;96714.90;611931;231;65665;-61
2023/04/22 06:12:07;;;;;;;;;;;;;;;23.29;46.90;96727.52;611083;231;64582;-61
2023/04/22 06:14:35;;;;;;;;;;;;;;;23.29;49.91;96730.20;611685;230;66773;-61
2023/04/22 06:17:03;;;;;;;;;;;;;;;23.30;48.42;96739.03;611834;231;65829;-61
2023/04/22 06:19:30;;;;;;;;;;;;;;;23.30;50.84;96747.89;606197;231;64810;-61
2023/04/22 06:21:58;;;;;;;;;;;;;;;23.30;49.72;96747.08;611759;231;67384;-61
2023/04/22 06:24:26;;;;;;;;;;;;;;;23.30;48.56;96745.21;611050;232;62895;-61
2023/04/22 06:26:55;;;;;;;;;;;;;;;23.31;47.19;96748.69;611824;230;67618;-61
2023/04/22 06:29:22;;;;;;;;;;;;;;;23.32;47.90;96755.63;611601;231;64902;-61
2023/04/22 06:31:50;;;;;;;;;;;;;;;23.33;48.65;96757.24;611427;232;64878;-61
2023/04/22 06:34:18;;;;;;;;;;;;;;;23.32;47.73;96761.78;611012;230;64607;-61
2023/04/22 06:36:45;;;;;;;;;;;;;;;23.34;47.90;96764.19;611502;230;66709;-61
2023/04/22 06:39:13;;;;;;;;;;;;;;;23.34;49.04;96764.19;611048;231;65115;-61
2023/04/22 06:41:54;;;;;;;;;;;;;;;23.35;49.20;96771.13;600507;233;46379;-61
2023/04/22 06:44:40;;;;;;;;;;;;;;;23.35;48.10;96765.77;609041;231;37402;-62
2023/04/22 06:47:09;;;;;;;;;;;;;;;23.37;50.61;96769.75;609702;232;46122;-61
2023/04/22 06:49:39;;;;;;;;;;;;;;;23.37;49.11;96777.00;610266;231;46887;-62
2023/04/22 06:52:17;;;;;;;;;;;;;;;23.37;47.84;96768.96;610788;232;47938;-61
2023/04/22 06:54:45;;;;;;;;;;;;;;;23.38;49.28;96768.68;611074;232;62727;-62
2023/04/22 06:57:12;;;;;;;;;;;;;;;23.39;48.41;96769.47;611479;231;66978;-61
2023/04/22 06:59:40;;;;;;;;;;;;;;;23.40;49.03;96768.38;611489;231;68700;-61
2023/04/22 07:02:08;;;;;;;;;;;;;;;23.41;49.48;96768.09;610987;231;65099;-61
2023/04/22 07:04:37;;;;;;;;;;;;;;;23.41;49.94;96770.78;611805;231;67177;-61
2023/04/22 07:07:06;;;;;;;;;;;;;;;23.42;47.03;96771.56;611053;231;67417;-61
2023/04/22 07:09:35;;;;;;;;;;;;;;;23.43;50.04;96773.94;611148;231;65733;-61
2023/04/22 07:12:03;;;;;;;;;;;;;;;23.43;48.63;96773.15;611267;232;67893;-61
2023/04/22 07:14:31;;;;;;;;;;;;;;;23.45;49.55;96781.70;611739;231;67414;-61
2023/04/22 07:16:59;;;;;;;;;;;;;;;23.45;48.74;96781.70;612150;231;65403;-61
2023/04/22 07:19:26;;;;;;;;;;;;;;;23.45;49.58;96787.07;611766;231;65087;-61
2023/04/22 07:21:54;;;;;;;;;;;;;;;23.46;49.28;96777.92;612460;231;64948;-62
2023/04/22 07:24:22;;;;;;;;;;;;;;;23.47;50.24;96779.53;611324;232;62885;-61
2023/04/22 07:26:49;;;;;;;;;;;;;;;23.48;49.41;96781.12;611136;231;67308;-61
2023/04/22 07:29:17;;;;;;;;;;;;;;;23.49;50.19;96780.05;611065;231;66824;-61
2023/04/22 07:31:44;;;;;;;;;;;;;;;23.49;49.15;96780.84;611418;232;65237;-62
2023/04/22 07:34:13;;;;;;;;;;;;;;;23.51;49.11;96782.42;611687;230;67051;-61
2023/04/22 07:36:41;;;;;;;;;;;;;;;23.52;48.21;96789.37;611429;231;66135;-61
2023/04/22 07:39:08;;;;;;;;;;;;;;;23.53;48.92;96788.30;611007;230;62903;-61
2023/04/22 07:41:36;;;;;;;;;;;;;;;23.54;48.01;96790.67;611078;230;67284;-61
2023/04/22 07:44:03;;;;;;;;;;;;;;;23.56;48.34;96793.07;611103;231;66951;-61
2023/04/22 07:46:31;;;;;;;;;;;;;;;23.57;47.34;96792.80;611447;231;67148;-61
2023/04/22 07:48:58;;;;;;;;;;;;;;;23.59;49.60;96787.91;611083;232;64791;-60
2023/04/22 07:51:26;;;;;;;;;;;;;;;23.60;50.00;96777.97;613181;230;67080;-60
2023/04/22 07:53:55;;;;;;;;;;;;;;;23.61;50.31;96788.42;611005;231;65038;-60
2023/04/22 07:56:23;;;;;;;;;;;;;;;23.61;49.24;96780.38;611354;231;66872;-61
2023/04/22 07:58:50;;;;;;;;;;;;;;;23.63;47.80;96780.88;611626;231;67075;-60
2023/04/22 08:01:17;;;;;;;;;;;;;;;23.66;47.65;96787.55;612159;231;64994;-60
2023/04/22 08:03:45;;;;;;;;;;;;;;;23.66;49.99;96782.97;611857;231;67411;-60
2023/04/22 08:06:12;;;;;;;;;;;;;;;23.68;47.60;96780.80;611483;230;66916;-60
2023/04/22 08:08:40;;;;;;;;;;;;;;;23.70;48.06;96783.17;611655;231;65097;-60
2023/04/22 08:11:07;;;;;;;;;;;;;;;23.72;49.41;96785.61;612133;231;67283;-60
2023/04/22 08:13:35;;;;;;;;;;;;;;;23.73;49.20;96781.83;611154;231;67120;-60
2023/04/22 08:16:02;;;;;;;;;;;;;;;23.74;48.46;96783.44;611290;232;64914;-60
2023/04/22 08:18:30;;;;;;;;;;;;;;;23.76;49.57;96787.39;611111;230;67184;-60
2023/04/22 08:20:57;;;;;;;;;;;;;;;23.77;48.24;96790.89;611514;232;67080;-61
2023/04/22 08:23:25;;;;;;;;;;;;;;;23.77;49.71;96789.00;611583;231;65087;-60
2023/04/22 08:25:52;;;;;;;;;;;;;;;23.78;48.81;96793.27;611873;231;67235;-61
2023/04/22 08:28:20;;;;;;;;;;;;;;;23.80;46.87;96792.98;611880;231;67181;-61
2023/04/22 08:30:47;;;;;;;;;;;;;;;23.81;49.81;96799.93;611461;231;65052;-61
2023/04/22 08:33:15;;;;;;;;;;;;;;;23.83;50.67;96803.91;611022;232;64848;-61
2023/04/22 08:35:43;;;;;;;;;;;;;;;23.85;49.39;96806.31;611145;231;65032;-61
2023/04/22 08:38:10;;;;;;;;;;;;;;;23.86;48.05;96808.69;611316;231;63017;-61
2023/04/22 08:40:39;;;;;;;;;;;;;;;23.87;49.75;96810.30;611576;232;65008;-61
2023/04/22 08:43:06;;;;;;;;;;;;;;;23.88;48.55;96817.25;611158;231;64704;-60
2023/04/22 08:45:33;;;;;;;;;;;;;;;;;;611156;231;63022;-61
2023/04/22 08:47:59;;;;;;;;;;;;;;;;;;611707;231;65937;-61
2023/04/22 08:50:28;;;;;;;;;;;;;;;23.91;48.77;96823.92;611887;231;65018;-61
2023/04/22 08:52:56;;;;;;;;;;;;;;;23.93;49.39;96824.43;611275;231;65001;-61
2023/04/22 08:55:24;;;;;;;;;;;;;;;23.95;49.67;96826.80;611071;231;67022;-62
2023/04/22 08:57:53;;;;;;;;;;;;;;;23.95;47.66;96827.59;611866;231;67356;-61
2023/04/22 09:00:20;;;;;;;;;;;;;;;23.96;48.41;96834.58;612168;231;65081;-61
2023/04/22 09:02:50;;;;;;;;;;;;;;;23.98;47.14;96827.03;611152;232;67378;-61
2023/04/22 09:05:19;;;;;;;;;;;;;;;23.99;49.46;96825.93;611608;231;66892;-61
2023/04/22 09:07:46;;;;;;;;;;;;;;;24.00;48.32;96830.20;611880;231;63776;-61
2023/04/22 09:10:14;;;;;;;;;;;;;;;24.01;48.12;96831.80;611300;231;66925;-61
2023/04/22 09:12:42;;;;;;;;;;;;;;;24.02;49.30;96833.39;611531;231;65015;-61
2023/04/22 09:15:10;;;;;;;;;;;;;;;24.03;47.93;96829.60;612458;231;63114;-61
2023/04/22 09:17:38;;;;;;;;;;;;;;;24.03;49.00;96829.60;611034;231;67474;-61
2023/04/22 09:20:06;;;;;;;;;;;;;;;24.03;48.41;96834.97;611506;230;65006;-61
2023/04/22 09:22:35;;;;;;;;;;;;;;;24.04;48.38;96836.58;611177;231;63852;-61
2023/04/22 09:25:07;;;;;;;;;;;;;;;24.05;48.76;96843.53;610782;231;67344;-61
2023/04/22 09:27:35;;;;;;;;;;;;;;;24.06;49.33;96858.56;611043;232;64991;-60
2023/04/22 09:30:04;;;;;;;;;;;;;;;24.06;48.44;96866.63;611296;231;65100;-60
2023/04/22 09:32:31;;;;;;;;;;;;;;;24.08;49.35;96868.99;610975;232;67427;-61
2023/04/22 09:34:59;;;;;;;;;;;;;;;24.08;48.28;96864.41;611513;230;67132;-61
2023/04/22 09:37:27;;;;;;;;;;;;;;;24.09;48.12;96868.72;610974;232;62998;-60
2023/04/22 09:39:55;;;;;;;;;;;;;;;24.10;47.48;96864.13;611025;231;64906;-60
2023/04/22 09:42:22;;;;;;;;;;;;;;;24.10;48.43;96864.92;611858;230;64978;-60
2023/04/22 09:44:54;;;;;;;;;;;;;;;24.11;48.79;96866.51;611337;231;65059;-60
2023/04/22 09:47:24;;;;;;;;;;;;;;;24.13;48.29;96869.70;611192;231;68512;-61
2023/04/22 09:49:52;;;;;;;;;;;;;;;24.14;47.64;96870.49;612139;231;67227;-61
2023/04/22 09:52:25;;;;;;;;;;;;;;;24.14;50.16;96876.69;611006;231;65084;-61
2023/04/22 09:54:53;;;;;;;;;;;;;;;24.17;48.25;96877.16;611186;231;65913;-61
2023/04/22 09:57:21;;;;;;;;;;;;;;;24.18;46.06;96874.20;613232;230;66788;-61
2023/04/22 09:59:52;;;;;;;;;;;;;;;24.19;48.20;96875.78;611235;230;65025;-61
2023/04/22 10:02:20;;;;;;;;;;;;;;;24.20;49.18;96868.52;611161;232;65136;-60
2023/04/22 10:04:48;;;;;;;;;;;;;;;24.21;49.08;96873.61;611498;231;67393;-60
2023/04/22 10:07:16;;;;;;;;;;;;;;;24.23;49.48;96876.01;610733;231;63044;-60
2023/04/22 10:09:45;;;;;;;;;;;;;;;24.24;46.93;96885.64;606348;231;67420;-60
2023/04/22 10:12:13;;;;;;;;;;;;;;;24.24;45.92;96877.59;611026;231;67054;-61
2023/04/22 10:14:40;;;;;;;;;;;;;;;24.26;47.51;96892.31;610922;232;65028;-60
2023/04/22 10:17:08;;;;;;;;;;;;;;;24.27;47.00;96887.73;611039;230;67279;-59
2023/04/22 10:19:36;;;;;;;;;;;;;;;24.29;46.18;96885.56;611620;232;67058;-60
2023/04/22 10:22:04;;;;;;;;;;;;;;;24.29;46.66;96885.56;611661;232;65389;-60
2023/04/22 10:24:36;;;;;;;;;;;;;;;24.31;47.43;96883.38;611262;231;66837;-61
2023/04/22 10:27:09;;;;;;;;;;;;;;;24.32;47.37;96882.28;610966;231;67171;-61
2023/04/22 10:29:38;;;;;;;;;;;;;;;24.33;45.68;96879.28;610770;232;65132;-60
2023/04/22 10:32:19;;;;;;;;;;;;;;;24.35;46.41;96884.37;610957;231;67470;-60
2023/04/22 10:34:47;;;;;;;;;;;;;;;24.36;46.11;96885.95;610986;231;64939;-61
2023/04/22 10:37:17;;;;;;;;;;;;;;;24.37;45.27;96871.45;612569;230;63002;-60
2023/04/22 10:39:46;;;;;;;;;;;;;;;24.39;44.73;96874.64;611167;232;65057;-60
2023/04/22 10:42:16;;;;;;;;;;;;;;;24.41;45.27;96868.96;610764;231;66917;-61
2023/04/22 10:44:51;;;;;;;;;;;;;;;24.42;46.42;96863.30;611426;231;65085;-60
2023/04/22 10:47:30;;;;;;;;;;;;;;;24.43;45.31;96864.89;610826;232;46945;-60
2023/04/22 10:50:11;;;;;;;;;;;;;;;24.44;45.71;96871.88;610937;232;66923;-60
2023/04/22 10:52:39;;;;;;;;;;;;;;;24.46;44.44;96864.32;611059;232;65082;-60
2023/04/22 10:55:07;;;;;;;;;;;;;;;24.46;47.80;96858.95;611147;231;67021;-60
2023/04/22 10:57:40;;;;;;;;;;;;;;;24.48;44.03;96867.52;603316;231;66753;-60
2023/04/22 11:00:21;;;;;;;;;;;;;;;24.50;45.17;96869.89;612700;231;62909;-61
2023/04/22 11:02:53;;;;;;;;;;;;;;;24.51;43.82;96858.06;611826;231;66978;-60
2023/04/22 11:05:23;;;;;;;;;;;;;;;24.51;46.48;96866.13;604225;230;66918;-61
2023/04/22 11:07:52;;;;;;;;;;;;;;;24.52;44.33;96862.33;613055;231;64879;-61
2023/04/22 11:10:34;;;;;;;;;;;;;;;24.54;44.99;96866.32;611820;231;64501;-61
2023/04/22 11:13:02;;;;;;;;;;;;;;;24.55;43.64;96862.56;611216;231;64765;-61
2023/04/22 11:15:30;;;;;;;;;;;;;;;24.57;43.35;96864.93;614186;230;63017;-61
2023/04/22 11:17:58;;;;;;;;;;;;;;;24.57;43.69;96857.66;613256;231;67218;-61
2023/04/22 11:20:25;;;;;;;;;;;;;;;24.58;45.93;96859.27;611905;231;67333;-62
2023/04/22 11:22:54;;;;;;;;;;;;;;;24.58;45.28;96851.21;611260;230;65083;-61
2023/04/22 11:25:22;;;;;;;;;;;;;;;24.60;45.72;96850.89;610870;231;65323;-61
2023/04/22 11:27:54;;;;;;;;;;;;;;;24.60;44.85;96842.84;611712;230;51457;-62
2023/04/22 11:30:23;;;;;;;;;;;;;;;24.61;44.99;96839.08;611618;231;63009;-61
2023/04/22 11:32:51;;;;;;;;;;;;;;;24.61;46.08;96839.08;611690;231;65046;-60
2023/04/22 11:35:20;;;;;;;;;;;;;;;24.62;46.79;96829.91;612158;231;67122;-60
2023/04/22 11:37:49;;;;;;;;;;;;;;;24.62;45.10;96831.80;612512;231;65046;-60
2023/04/22 11:40:18;;;;;;;;;;;;;;;24.63;45.82;96831.48;611610;232;66806;-60
2023/04/22 11:42:46;;;;;;;;;;;;;;;24.66;44.68;96827.41;611222;231;66940;-61
2023/04/22 11:45:13;;;;;;;;;;;;;;;24.64;42.71;96825.04;610953;232;63020;-61
2023/04/22 11:47:41;;;;;;;;;;;;;;;24.65;44.44;96818.55;610979;230;65343;-61
2023/04/22 11:50:11;;;;;;;;;;;;;;;24.67;46.38;96826.33;611064;231;64873;-61
2023/04/22 11:52:44;;;;;;;;;;;;;;;24.67;46.56;96818.27;610964;232;65047;-61
2023/04/22 11:55:12;;;;;;;;;;;;;;;24.66;47.11;96820.14;611906;231;67264;-61
2023/04/22 11:57:40;;;;;;;;;;;;;;;24.68;45.47;96811.79;611180;231;64988;-61
2023/04/22 12:00:09;;;;;;;;;;;;;;;24.68;44.37;96811.79;610976;231;65043;-61
2023/04/22 12:02:37;;;;;;;;;;;;;;;24.69;45.15;96813.38;611234;231;64982;-61
2023/04/22 12:05:05;;;;;;;;;;;;;;;24.69;47.10;96803.44;611488;232;67077;-61
2023/04/22 12:07:32;;;;;;;;;;;;;;;24.69;45.18;96813.38;611704;231;65040;-61
2023/04/22 12:10:01;;;;;;;;;;;;;;;24.69;46.20;96803.44;611015;231;66981;-61
2023/04/22 12:12:29;;;;;;;;;;;;;;;24.70;46.24;96802.34;611340;231;67052;-61
2023/04/22 12:14:57;;;;;;;;;;;;;;;24.71;44.79;96784.31;611243;232;65046;-61
2023/04/22 12:17:25;;;;;;;;;;;;;;;24.71;43.52;96787.00;613243;230;67231;-61
2023/04/22 12:19:56;;;;;;;;;;;;;;;24.71;45.62;96785.11;611113;230;67126;-61
2023/04/22 12:22:25;;;;;;;;;;;;;;;24.72;46.54;96786.72;611033;232;65075;-61
2023/04/22 12:24:53;;;;;;;;;;;;;;;24.72;47.90;96775.17;611151;231;67266;-61
2023/04/22 12:27:20;;;;;;;;;;;;;;;24.72;44.87;96775.17;611005;232;64734;-60
2023/04/22 12:29:52;;;;;;;;;;;;;;;24.71;45.35;96765.51;611252;230;64975;-61
2023/04/22 12:32:20;;;;;;;;;;;;;;;24.73;46.25;96766.01;610752;231;67358;-60
2023/04/22 12:34:48;;;;;;;;;;;;;;;24.73;45.47;96758.73;611126;230;67382;-60
2023/04/22 12:37:16;;;;;;;;;;;;;;;24.74;45.95;96764.90;611037;231;65051;-60
2023/04/22 12:39:44;;;;;;;;;;;;;;;24.74;44.85;96757.62;612434;231;64994;-60
2023/04/22 12:42:12;;;;;;;;;;;;;;;24.75;44.44;96753.86;611313;232;67089;-60
2023/04/22 12:44:40;;;;;;;;;;;;;;;24.75;45.11;96753.08;612037;230;63111;-60
2023/04/22 12:47:08;;;;;;;;;;;;;;;24.75;45.93;96748.48;611879;231;67216;-60
2023/04/22 12:49:37;;;;;;;;;;;;;;;24.76;46.93;96746.59;611428;232;64962;-60
2023/04/22 12:52:04;;;;;;;;;;;;;;;24.76;46.58;96743.91;610993;232;65045;-60
2023/04/22 12:54:32;;;;;;;;;;;;;;;24.76;45.65;96749.28;605066;232;67009;-60